createdAt,value
2017-07-06T00:00:46.439Z,20.50
2017-07-06T00:03:16.275Z,20.50
2017-07-06T00:05:46.352Z,20.50
2017-07-06T00:08:16.353Z,20.50
2017-07-06T00:10:46.122Z,20.40
2017-07-06T00:13:16.208Z,20.30
2017-07-06T00:15:46.221Z,20.30
2017-07-06T00:18:16.240Z,20.20
2017-07-06T00:20:46.358Z,20.30
2017-07-06T00:23:16.580Z,20.30
2017-07-06T00:25:46.564Z,20.20
2017-07-06T00:28:16.316Z,20.20
2017-07-06T00:30:46.334Z,20.20
2017-07-06T00:33:16.100Z,20.20
2017-07-06T00:35:46.083Z,20.10
2017-07-06T00:38:16.228Z,20.20
2017-07-06T00:40:46.111Z,20.20
2017-07-06T00:43:16.551Z,20.10
2017-07-06T00:45:46.240Z,20.20
2017-07-06T00:48:16.208Z,20.20
2017-07-06T00:50:46.995Z,20.20
2017-07-06T00:53:17.074Z,20.10
2017-07-06T00:55:48.005Z,20.10
2017-07-06T00:58:18.037Z,20.10
2017-07-06T01:00:47.787Z,20.10
2017-07-06T01:03:17.896Z,20.10
2017-07-06T01:05:47.921Z,20.10
2017-07-06T01:08:17.758Z,20.10
2017-07-06T01:10:48.567Z,20.20
2017-07-06T01:13:18.843Z,20.10
2017-07-06T01:15:48.962Z,20.10
2017-07-06T01:18:18.925Z,20.10
2017-07-06T01:20:48.773Z,20.00
2017-07-06T01:23:18.571Z,20.00
2017-07-06T01:25:49.291Z,20.00
2017-07-06T01:28:19.166Z,20.00
2017-07-06T01:30:48.895Z,20.00
2017-07-06T01:33:18.696Z,20.00
2017-07-06T01:35:48.271Z,19.90
2017-07-06T01:38:18.996Z,20.00
2017-07-06T01:40:49.604Z,20.00
2017-07-06T01:43:19.510Z,20.00
2017-07-06T01:45:49.376Z,19.90
2017-07-06T01:48:19.894Z,20.00
2017-07-06T01:50:49.685Z,20.00
2017-07-06T01:53:19.319Z,20.00
2017-07-06T01:55:49.658Z,19.90
2017-07-06T01:58:19.688Z,20.00
2017-07-06T02:00:49.747Z,19.90
2017-07-06T02:03:19.604Z,19.80
2017-07-06T02:05:49.601Z,19.90
2017-07-06T02:08:20.023Z,19.90
2017-07-06T02:10:50.723Z,19.90
2017-07-06T02:13:20.543Z,19.90
2017-07-06T02:15:50.655Z,19.90
2017-07-06T02:18:20.511Z,19.80
2017-07-06T02:20:51.260Z,19.90
2017-07-06T02:23:21.216Z,19.90
2017-07-06T02:25:51.565Z,19.90
2017-07-06T02:28:21.673Z,19.80
2017-07-06T02:30:51.544Z,19.80
2017-07-06T02:33:21.456Z,19.80
2017-07-06T02:35:52.131Z,19.50
2017-07-06T02:38:22.307Z,19.50
2017-07-06T02:40:52.257Z,19.50
2017-07-06T02:43:22.115Z,19.60
2017-07-06T02:45:52.583Z,19.60
2017-07-06T02:48:22.246Z,19.60
2017-07-06T02:50:52.626Z,19.70
2017-07-06T02:53:22.450Z,19.80
2017-07-06T02:55:52.325Z,19.70
2017-07-06T02:58:22.379Z,19.80
2017-07-06T03:00:52.364Z,19.80
2017-07-06T03:03:22.189Z,19.70
2017-07-06T03:05:52.231Z,19.80
2017-07-06T03:08:22.746Z,19.80
2017-07-06T03:10:52.844Z,19.70
2017-07-06T03:13:23.019Z,19.70
2017-07-06T03:15:53.055Z,19.70
2017-07-06T03:18:23.838Z,19.70
2017-07-06T03:20:54.135Z,19.70
2017-07-06T03:23:24.896Z,19.70
2017-07-06T03:25:54.626Z,19.70
2017-07-06T03:28:24.433Z,19.60
2017-07-06T03:30:54.295Z,19.60
2017-07-06T03:33:24.312Z,19.50
2017-07-06T03:35:54.792Z,19.40
2017-07-06T03:38:24.859Z,19.40
2017-07-06T03:40:54.714Z,19.40
2017-07-06T03:43:24.235Z,19.40
2017-07-06T03:45:54.147Z,19.50
2017-07-06T03:48:24.082Z,19.50
2017-07-06T03:50:54.471Z,19.50
2017-07-06T03:53:24.267Z,19.60
2017-07-06T03:55:54.916Z,19.70
2017-07-06T03:58:25.163Z,19.70
2017-07-06T04:00:55.039Z,19.80
2017-07-06T04:03:25.292Z,19.80
2017-07-06T04:05:55.239Z,19.80
2017-07-06T04:08:25.063Z,20.00
2017-07-06T04:10:54.952Z,20.10
2017-07-06T04:13:24.471Z,20.00
2017-07-06T04:15:53.948Z,20.10
2017-07-06T04:18:23.500Z,20.10
2017-07-06T04:20:53.255Z,20.10
2017-07-06T04:23:22.766Z,20.20
2017-07-06T04:25:52.233Z,20.20
2017-07-06T04:28:21.805Z,20.20
2017-07-06T04:30:51.345Z,20.20
2017-07-06T04:33:21.258Z,20.30
2017-07-06T04:35:50.930Z,20.10
2017-07-06T04:38:20.779Z,20.20
2017-07-06T04:40:50.952Z,20.40
2017-07-06T04:43:20.988Z,20.50
2017-07-06T04:45:51.185Z,20.60
2017-07-06T04:48:20.986Z,20.70
2017-07-06T04:50:50.524Z,21.10
2017-07-06T04:53:20.009Z,21.80
2017-07-06T04:55:49.955Z,23.30
2017-07-06T04:58:20.568Z,24.60
2017-07-06T05:00:50.060Z,25.70
2017-07-06T05:03:20.025Z,26.80
2017-07-06T05:05:50.494Z,28.40
2017-07-06T05:08:20.387Z,28.40
2017-07-06T05:10:49.945Z,28.70
2017-07-06T05:13:19.517Z,28.80
2017-07-06T05:15:49.370Z,28.90
2017-07-06T05:18:18.908Z,28.90
2017-07-06T05:20:48.413Z,28.10
2017-07-06T05:23:17.987Z,27.50
2017-07-06T05:25:47.539Z,26.90
2017-07-06T05:28:17.626Z,26.40
2017-07-06T05:30:47.220Z,26.20
2017-07-06T05:33:16.765Z,25.70
2017-07-06T05:35:46.340Z,25.10
2017-07-06T05:38:16.032Z,24.90
2017-07-06T05:40:45.513Z,24.80
2017-07-06T05:43:15.030Z,24.90
2017-07-06T05:45:44.872Z,24.90
2017-07-06T05:48:14.460Z,24.90
2017-07-06T05:50:44.004Z,24.60
2017-07-06T05:53:13.524Z,24.30
2017-07-06T05:55:43.271Z,24.00
2017-07-06T05:58:13.247Z,24.10
2017-07-06T06:00:42.868Z,24.30
2017-07-06T06:03:12.431Z,25.00
2017-07-06T06:05:41.935Z,26.40
2017-07-06T06:08:11.464Z,26.70
2017-07-06T06:10:41.280Z,26.90
2017-07-06T06:13:10.852Z,27.20
2017-07-06T06:15:40.739Z,27.30
2017-07-06T06:18:10.456Z,28.20
2017-07-06T06:20:40.232Z,29.60
2017-07-06T06:23:09.771Z,30.90
2017-07-06T06:25:39.779Z,32.00
2017-07-06T06:28:09.999Z,32.70
2017-07-06T06:30:40.251Z,33.70
2017-07-06T06:33:14.479Z,34.20
2017-07-06T06:35:45.261Z,34.80
2017-07-06T06:38:16.673Z,35.80
2017-07-06T06:40:48.424Z,36.00
2017-07-06T06:43:17.984Z,35.90
2017-07-06T06:45:47.626Z,36.10
2017-07-06T06:48:17.151Z,36.60
2017-07-06T06:50:46.680Z,37.10
2017-07-06T06:53:16.212Z,37.40
2017-07-06T06:55:46.044Z,37.70
2017-07-06T06:58:15.889Z,37.60
2017-07-06T07:00:46.316Z,38.00
2017-07-06T07:03:16.232Z,38.40
2017-07-06T07:05:45.854Z,38.50
2017-07-06T07:08:15.405Z,38.50
2017-07-06T07:10:44.946Z,38.80
2017-07-06T07:13:14.432Z,38.90
2017-07-06T07:15:44.794Z,39.50
2017-07-06T07:18:14.494Z,39.80
2017-07-06T07:20:44.037Z,40.00
2017-07-06T07:23:13.878Z,40.40
2017-07-06T07:25:43.389Z,40.50
2017-07-06T07:28:12.913Z,40.80
2017-07-06T07:30:42.416Z,41.10
2017-07-06T07:33:11.943Z,41.00
2017-07-06T07:35:41.521Z,41.00
2017-07-06T07:38:11.063Z,41.20
2017-07-06T07:40:40.919Z,41.20
2017-07-06T07:43:10.469Z,40.80
2017-07-06T07:45:40.153Z,41.10
2017-07-06T07:48:09.733Z,41.40
2017-07-06T07:50:39.253Z,41.60
2017-07-06T07:53:09.254Z,41.60
2017-07-06T07:55:38.789Z,40.10
2017-07-06T07:58:08.296Z,39.00
2017-07-06T08:00:37.808Z,38.80
2017-07-06T08:03:07.411Z,38.80
2017-07-06T08:05:37.189Z,39.10
2017-07-06T08:08:07.973Z,40.20
2017-07-06T08:10:38.041Z,40.70
2017-07-06T08:13:07.562Z,41.00
2017-07-06T08:15:37.117Z,39.30
2017-07-06T08:18:06.659Z,37.50
2017-07-06T08:20:36.290Z,37.20
2017-07-06T08:23:06.011Z,37.40
2017-07-06T08:25:35.535Z,37.90
2017-07-06T08:28:05.280Z,38.10
2017-07-06T08:30:34.798Z,37.40
2017-07-06T08:33:04.471Z,38.00
2017-07-06T08:35:34.289Z,38.70
2017-07-06T08:38:03.876Z,38.60
2017-07-06T08:40:33.384Z,38.50
2017-07-06T08:43:02.898Z,38.60
2017-07-06T08:45:32.430Z,36.10
2017-07-06T08:48:02.610Z,33.40
2017-07-06T08:50:32.131Z,32.40
2017-07-06T08:53:01.709Z,31.10
2017-07-06T08:55:31.216Z,30.10
2017-07-06T08:58:00.729Z,30.60
2017-07-06T09:00:30.271Z,30.50
2017-07-06T09:02:59.784Z,30.40
2017-07-06T09:05:29.805Z,30.20
2017-07-06T09:07:59.265Z,29.10
2017-07-06T09:10:28.786Z,28.90
2017-07-06T09:12:58.518Z,29.40
2017-07-06T09:15:28.525Z,29.40
2017-07-06T09:17:58.753Z,29.60
2017-07-06T09:20:28.332Z,28.90
2017-07-06T09:22:57.951Z,28.90
2017-07-06T09:25:27.537Z,29.00
2017-07-06T09:27:57.173Z,29.10
2017-07-06T09:30:26.723Z,29.60
2017-07-06T09:32:57.872Z,29.90
2017-07-06T09:35:33.210Z,30.00
2017-07-06T09:38:02.730Z,30.00
2017-07-06T09:40:32.275Z,29.90
2017-07-06T09:43:01.825Z,30.40
2017-07-06T09:45:31.361Z,30.90
2017-07-06T09:48:01.191Z,31.70
2017-07-06T09:50:30.819Z,32.40
2017-07-06T09:53:00.356Z,33.20
2017-07-06T09:55:29.988Z,32.30
2017-07-06T09:57:59.628Z,32.30
2017-07-06T10:00:29.605Z,32.70
2017-07-06T10:02:59.519Z,33.30
2017-07-06T10:05:29.061Z,32.60
2017-07-06T10:07:58.822Z,32.40
2017-07-06T10:10:28.435Z,32.90
2017-07-06T10:12:57.964Z,33.70
2017-07-06T10:15:27.505Z,32.60
2017-07-06T10:17:57.064Z,32.20
2017-07-06T10:20:26.644Z,32.70
2017-07-06T10:22:56.207Z,34.00
2017-07-06T10:25:25.846Z,34.00
2017-07-06T10:27:55.522Z,33.40
2017-07-06T10:30:40.852Z,31.80
2017-07-06T10:33:10.631Z,31.80
2017-07-06T10:35:40.485Z,32.90
2017-07-06T10:38:10.168Z,33.00
2017-07-06T10:40:39.960Z,33.80
2017-07-06T10:43:09.504Z,34.60
2017-07-06T10:45:39.062Z,34.70
2017-07-06T10:48:08.697Z,36.10
2017-07-06T10:50:38.208Z,37.70
2017-07-06T10:53:07.745Z,36.80
2017-07-06T10:55:37.476Z,35.40
2017-07-06T10:58:07.173Z,33.80
2017-07-06T11:00:39.546Z,33.90
2017-07-06T11:03:15.022Z,32.40
2017-07-06T11:05:44.893Z,32.90
2017-07-06T11:08:14.433Z,33.30
2017-07-06T11:10:44.022Z,32.70
2017-07-06T11:13:14.163Z,31.70
2017-07-06T11:15:44.126Z,31.70
2017-07-06T11:18:13.692Z,32.10
2017-07-06T11:20:43.251Z,32.00
2017-07-06T11:23:12.793Z,32.10
2017-07-06T11:25:42.327Z,31.90
2017-07-06T11:28:11.940Z,32.10
2017-07-06T11:30:51.203Z,32.10
2017-07-06T11:33:21.006Z,32.30
2017-07-06T11:35:51.490Z,32.40
2017-07-06T11:38:21.289Z,32.40
2017-07-06T11:40:50.844Z,32.70
2017-07-06T11:43:20.615Z,31.50
2017-07-06T11:45:50.215Z,31.30
2017-07-06T11:48:19.769Z,31.40
2017-07-06T11:50:49.291Z,31.50
2017-07-06T11:53:33.542Z,31.80
2017-07-06T11:56:03.139Z,31.70
2017-07-06T11:58:32.751Z,31.60
2017-07-06T12:01:02.702Z,31.70
2017-07-06T12:03:32.388Z,31.10
2017-07-06T12:06:01.887Z,30.90
2017-07-06T12:08:31.406Z,31.20
2017-07-06T12:11:04.270Z,31.20
2017-07-06T12:13:34.042Z,31.20
2017-07-06T12:16:03.548Z,31.60
2017-07-06T12:18:33.044Z,31.60
2017-07-06T12:21:02.594Z,31.40
2017-07-06T12:23:32.120Z,31.20
2017-07-06T12:26:02.251Z,31.50
2017-07-06T12:28:31.991Z,31.70
2017-07-06T12:31:01.867Z,31.80
2017-07-06T12:33:31.656Z,31.70
2017-07-06T12:36:01.312Z,31.40
2017-07-06T12:38:30.989Z,31.60
2017-07-06T12:41:00.801Z,31.70
2017-07-06T12:43:31.904Z,31.70
2017-07-06T12:46:01.428Z,31.50
2017-07-06T12:48:31.201Z,31.10
2017-07-06T12:51:01.035Z,31.30
2017-07-06T12:53:30.584Z,31.40
2017-07-06T12:56:00.358Z,31.60
2017-07-06T12:58:29.894Z,31.70
2017-07-06T13:00:59.445Z,31.90
2017-07-06T13:03:29.089Z,32.00
2017-07-06T13:05:58.694Z,32.20
2017-07-06T13:08:28.241Z,32.30
2017-07-06T13:10:57.859Z,32.10
2017-07-06T13:13:29.792Z,31.90
2017-07-06T13:15:59.676Z,31.80
2017-07-06T13:18:29.364Z,31.60
2017-07-06T13:20:59.007Z,31.70
2017-07-06T13:23:28.508Z,31.40
2017-07-06T13:25:58.455Z,31.50
2017-07-06T13:28:28.700Z,31.40
2017-07-06T13:30:58.491Z,31.30
2017-07-06T13:33:28.229Z,31.50
2017-07-06T13:35:58.148Z,31.50
2017-07-06T13:38:28.548Z,31.50
2017-07-06T13:40:59.200Z,31.40
2017-07-06T13:43:29.364Z,31.40
2017-07-06T13:45:59.232Z,31.20
2017-07-06T13:48:29.495Z,31.30
2017-07-06T13:50:59.140Z,31.20
2017-07-06T13:53:29.899Z,31.30
2017-07-06T13:56:01.513Z,31.50
2017-07-06T13:58:31.113Z,31.50
2017-07-06T14:01:00.682Z,31.40
2017-07-06T14:03:30.835Z,31.40
2017-07-06T14:06:00.485Z,31.50
2017-07-06T14:08:31.037Z,31.70
2017-07-06T14:11:00.667Z,31.60
2017-07-06T14:13:30.216Z,31.60
2017-07-06T14:16:00.510Z,31.70
2017-07-06T14:18:30.063Z,31.60
2017-07-06T14:20:59.656Z,31.60
2017-07-06T14:23:29.264Z,31.60
2017-07-06T14:27:01.829Z,31.30
2017-07-06T14:29:31.474Z,31.30
2017-07-06T14:32:01.461Z,31.50
2017-07-06T14:34:31.055Z,31.30
2017-07-06T14:37:00.623Z,31.20
2017-07-06T14:39:30.264Z,31.10
2017-07-06T14:41:59.992Z,31.40
2017-07-06T14:44:30.138Z,31.60
2017-07-06T14:46:59.808Z,31.40
2017-07-06T14:49:29.419Z,31.30
2017-07-06T14:51:59.132Z,31.40
2017-07-06T14:54:29.483Z,31.30
2017-07-06T14:56:59.949Z,31.30
2017-07-06T14:59:29.486Z,31.40
2017-07-06T15:01:59.226Z,31.40
2017-07-06T15:04:28.815Z,31.50
2017-07-06T15:06:58.372Z,31.30
2017-07-06T15:09:53.225Z,31.10
2017-07-06T15:12:29.621Z,31.00
2017-07-06T15:14:59.901Z,30.80
2017-07-06T15:17:29.442Z,31.00
2017-07-06T15:19:59.075Z,31.10
2017-07-06T15:22:29.602Z,31.20
2017-07-06T15:24:59.190Z,31.20
2017-07-06T15:27:29.010Z,31.10
2017-07-06T15:29:58.674Z,31.10
2017-07-06T15:32:28.252Z,31.20
2017-07-06T15:34:57.897Z,31.30
2017-07-06T15:37:27.773Z,31.50
2017-07-06T15:39:57.780Z,31.30
2017-07-06T15:42:27.508Z,31.10
2017-07-06T15:44:57.985Z,31.10
2017-07-06T15:47:31.423Z,31.00
2017-07-06T15:50:01.373Z,31.00
2017-07-06T15:52:35.925Z,30.90
2017-07-06T15:55:05.606Z,31.00
2017-07-06T15:57:37.686Z,31.10
2017-07-06T16:00:09.478Z,31.10
2017-07-06T16:02:39.108Z,31.10
2017-07-06T16:05:08.823Z,31.20
2017-07-06T16:07:38.523Z,31.20
2017-07-06T16:10:08.379Z,31.20
2017-07-06T16:12:38.150Z,31.00
2017-07-06T16:15:08.891Z,31.10
2017-07-06T16:17:38.576Z,31.20
2017-07-06T16:20:08.199Z,31.30
2017-07-06T16:22:38.259Z,31.10
2017-07-06T16:25:07.904Z,30.90
2017-07-06T16:27:37.820Z,30.80
2017-07-06T16:30:07.512Z,30.70
2017-07-06T16:32:37.213Z,30.80
2017-07-06T16:35:07.027Z,30.80
2017-07-06T16:37:36.646Z,31.00
2017-07-06T16:40:06.584Z,31.10
2017-07-06T16:42:36.640Z,31.10
2017-07-06T16:45:06.988Z,31.20
2017-07-06T16:47:37.644Z,30.90
2017-07-06T16:50:07.387Z,30.90
2017-07-06T16:52:37.562Z,30.60
2017-07-06T16:55:07.857Z,30.60
2017-07-06T16:57:40.664Z,30.60
2017-07-06T17:00:13.894Z,30.60
2017-07-06T17:02:43.996Z,30.50
2017-07-06T17:05:14.362Z,30.50
2017-07-06T17:07:44.823Z,30.40
2017-07-06T17:10:14.740Z,30.40
2017-07-06T17:12:44.382Z,30.40
2017-07-06T17:15:14.140Z,30.10
2017-07-06T17:17:44.545Z,30.00
2017-07-06T17:20:14.131Z,30.10
2017-07-06T17:22:43.813Z,30.10
2017-07-06T17:25:13.442Z,30.10
2017-07-06T17:27:42.999Z,30.00
2017-07-06T17:30:12.728Z,30.00
2017-07-06T17:32:42.295Z,30.00
2017-07-06T17:35:11.915Z,29.90
2017-07-06T17:37:41.457Z,29.70
2017-07-06T17:40:11.776Z,29.70
2017-07-06T17:42:41.523Z,29.60
2017-07-06T17:45:18.277Z,29.50
2017-07-06T17:47:47.836Z,29.50
2017-07-06T17:50:17.431Z,29.50
2017-07-06T17:52:47.256Z,29.40
2017-07-06T17:55:16.797Z,29.20
2017-07-06T17:57:46.452Z,29.00
2017-07-06T18:00:16.501Z,28.90
2017-07-06T18:02:46.372Z,28.80
2017-07-06T18:05:17.234Z,28.70
2017-07-06T18:07:47.048Z,28.70
2017-07-06T18:10:19.637Z,28.70
2017-07-06T18:12:49.311Z,28.70
2017-07-06T18:15:18.892Z,28.70
2017-07-06T18:17:48.438Z,28.60
2017-07-06T18:20:18.214Z,28.60
2017-07-06T18:22:48.191Z,28.50
2017-07-06T18:25:17.768Z,28.40
2017-07-06T18:27:47.460Z,28.30
2017-07-06T18:30:17.233Z,28.20
2017-07-06T18:32:46.914Z,28.10
2017-07-06T18:35:23.104Z,28.00
2017-07-06T18:37:52.744Z,28.00
2017-07-06T18:40:22.716Z,27.80
2017-07-06T18:42:52.241Z,27.70
2017-07-06T18:45:23.414Z,27.60
2017-07-06T18:47:53.082Z,27.50
2017-07-06T18:50:23.093Z,27.50
2017-07-06T18:52:53.223Z,27.40
2017-07-06T18:55:23.623Z,27.30
2017-07-06T18:57:53.689Z,27.20
2017-07-06T19:00:23.674Z,27.10
2017-07-06T19:02:53.620Z,27.00
2017-07-06T19:05:27.743Z,26.90
2017-07-06T19:07:58.236Z,26.80
2017-07-06T19:10:27.952Z,26.60
2017-07-06T19:12:57.611Z,26.60
2017-07-06T19:15:27.318Z,26.50
2017-07-06T19:17:57.008Z,26.40
2017-07-06T19:20:26.601Z,26.30
2017-07-06T19:22:56.546Z,26.30
2017-07-06T19:25:26.135Z,26.20
2017-07-06T19:27:55.754Z,26.20
2017-07-06T19:30:25.373Z,26.10
2017-07-06T19:32:54.932Z,26.00
2017-07-06T19:35:24.927Z,26.00
2017-07-06T19:37:54.783Z,25.90
2017-07-06T19:40:24.933Z,25.80
2017-07-06T19:42:54.907Z,25.80
2017-07-06T19:45:25.459Z,25.70
2017-07-06T19:47:55.543Z,25.50
2017-07-06T19:50:25.632Z,25.50
2017-07-06T19:52:58.427Z,25.40
2017-07-06T19:55:27.984Z,25.40
2017-07-06T19:57:58.311Z,25.40
2017-07-06T20:00:28.095Z,25.40
2017-07-06T20:02:57.842Z,25.30
2017-07-06T20:05:27.708Z,25.20
2017-07-06T20:07:57.309Z,25.30
2017-07-06T20:10:26.905Z,25.20
2017-07-06T20:12:56.544Z,25.20
2017-07-06T20:15:26.273Z,25.10
2017-07-06T20:17:56.211Z,25.10
2017-07-06T20:20:25.832Z,25.10
2017-07-06T20:22:55.460Z,25.00
2017-07-06T20:25:25.045Z,24.70
2017-07-06T20:27:54.632Z,24.50
2017-07-06T20:30:24.242Z,24.50
2017-07-06T20:32:53.846Z,24.40
2017-07-06T20:35:23.435Z,24.40
2017-07-06T20:37:53.051Z,24.30
2017-07-06T20:40:22.604Z,24.30
2017-07-06T20:42:52.172Z,24.20
2017-07-06T20:45:21.844Z,24.20
2017-07-06T20:47:51.719Z,24.20
2017-07-06T20:50:21.479Z,24.20
2017-07-06T20:52:51.176Z,24.20
2017-07-06T20:55:20.735Z,24.20
2017-07-06T20:57:50.488Z,24.10
2017-07-06T21:00:20.402Z,24.10
2017-07-06T21:02:49.974Z,24.10
2017-07-06T21:05:19.659Z,24.00
2017-07-06T21:07:49.226Z,24.00
2017-07-06T21:10:19.834Z,23.90
2017-07-06T21:12:49.363Z,23.80
2017-07-06T21:15:18.949Z,23.80
2017-07-06T21:17:48.803Z,23.60
2017-07-06T21:20:18.408Z,23.70
2017-07-06T21:22:47.991Z,23.70
2017-07-06T21:25:17.554Z,23.70
2017-07-06T21:27:47.384Z,23.60
2017-07-06T21:30:17.588Z,23.50
2017-07-06T21:32:47.110Z,23.50
2017-07-06T21:35:16.908Z,23.40
2017-07-06T21:37:46.862Z,23.40
2017-07-06T21:40:16.838Z,23.40
2017-07-06T21:42:47.247Z,23.30
2017-07-06T21:45:28.191Z,23.30
2017-07-06T21:47:58.436Z,23.30
2017-07-06T21:50:28.267Z,23.20
2017-07-06T21:52:57.979Z,23.20
2017-07-06T21:55:28.101Z,23.20
2017-07-06T21:57:58.392Z,23.20
2017-07-06T22:00:28.659Z,23.20
2017-07-06T22:02:59.876Z,23.10
2017-07-06T22:05:29.835Z,23.00
2017-07-06T22:07:59.973Z,22.90
2017-07-06T22:10:29.789Z,22.90
2017-07-06T22:12:59.719Z,22.80
2017-07-06T22:15:29.348Z,22.70
2017-07-06T22:17:58.877Z,22.80
2017-07-06T22:20:28.449Z,22.80
2017-07-06T22:22:58.622Z,22.70
2017-07-06T22:25:28.581Z,22.70
2017-07-06T22:27:58.611Z,22.70
2017-07-06T22:30:28.147Z,22.70
2017-07-06T22:32:58.085Z,22.70
2017-07-06T22:35:27.993Z,22.70
2017-07-06T22:37:57.995Z,22.80
2017-07-06T22:40:28.716Z,22.70
2017-07-06T22:42:58.559Z,22.70
2017-07-06T22:45:28.107Z,22.70
2017-07-06T22:47:57.616Z,22.70
2017-07-06T22:50:27.159Z,22.70
2017-07-06T22:52:57.077Z,22.80
2017-07-06T22:55:26.990Z,22.70
2017-07-06T22:57:56.857Z,22.80
2017-07-06T23:00:26.544Z,22.80
2017-07-06T23:02:56.621Z,22.80
2017-07-06T23:05:26.349Z,22.80
2017-07-06T23:07:56.273Z,22.80
2017-07-06T23:10:26.017Z,22.70
2017-07-06T23:12:56.667Z,22.80
2017-07-06T23:15:26.628Z,22.70
2017-07-06T23:17:56.520Z,22.70
2017-07-06T23:20:26.461Z,22.70
2017-07-06T23:22:57.205Z,22.60
2017-07-06T23:25:27.540Z,22.70
2017-07-06T23:27:57.329Z,22.70
2017-07-06T23:30:28.243Z,22.80
2017-07-06T23:32:58.093Z,22.80
2017-07-06T23:35:28.019Z,22.70
2017-07-06T23:37:58.536Z,22.70
2017-07-06T23:40:28.226Z,22.70
2017-07-06T23:42:58.125Z,22.60
2017-07-06T23:45:28.234Z,22.60
2017-07-06T23:47:58.064Z,22.50
2017-07-06T23:50:27.856Z,22.50
2017-07-06T23:52:57.809Z,22.50
2017-07-06T23:55:27.963Z,22.50
2017-07-06T23:57:57.500Z,22.60
